Time;durP1;ratioP1;P1;durP2;ratioP2;P2;SDS_P1;SDS_P2;PMS_P1;PMS_P2;Temp;Humidity;BMP_temperature;BMP_pressure;BME280_temperature;BME280_humidity;BME280_pressure;Samples;Min_cycle;Max_cycle;Signal;HPM_P1;HPM_P2
2022/03/19 00:00:00;;;;;;;30.15;4.20;;;21.10;99.90;;;;;;5030426;28;20028;-68
2022/03/19 00:02:27;;;;;;;11.73;2.72;;;21.10;99.90;;;;;;5016217;28;20387;-68
2022/03/19 00:04:55;;;;;;;15.43;2.83;;;21.10;99.90;;;;;;5017989;28;20120;-68
2022/03/19 00:07:22;;;;;;;18.77;2.80;;;21.10;99.90;;;;;;5026512;28;20119;-68
2022/03/19 00:09:49;;;;;;;14.40;3.22;;;21.20;99.90;;;;;;5029785;28;20065;-68
2022/03/19 00:12:17;;;;;;;19.40;3.00;;;21.30;99.90;;;;;;5020941;28;20390;-68
2022/03/19 00:14:44;;;;;;;12.60;2.47;;;21.30;99.90;;;;;;5017971;28;20018;-68
2022/03/19 00:17:12;;;;;;;19.30;3.97;;;21.20;99.90;;;;;;5028819;28;20148;-68
2022/03/19 00:19:40;;;;;;;16.60;2.97;;;21.10;99.90;;;;;;5036937;28;20444;-69
2022/03/19 00:22:07;;;;;;;15.57;3.10;;;21.10;99.90;;;;;;5033010;28;20029;-67
2022/03/19 00:24:37;;;;;;;19.10;2.97;;;20.80;99.90;;;;;;5025138;28;20030;-68
2022/03/19 00:27:08;;;;;;;17.10;3.88;;;20.60;99.90;;;;;;5022907;28;20040;-68
2022/03/19 00:29:35;;;;;;;25.80;4.78;;;20.00;99.90;;;;;;5024661;28;21516;-68
2022/03/19 00:32:02;;;;;;;23.15;3.83;;;19.80;99.90;;;;;;5034469;28;20022;-68
2022/03/19 00:34:31;;;;;;;20.63;4.32;;;19.60;99.90;;;;;;5036030;28;20036;-68
2022/03/19 00:36:59;;;;;;;20.75;3.75;;;19.70;99.90;;;;;;5017886;28;20050;-68
2022/03/19 00:39:26;;;;;;;19.00;3.42;;;19.70;99.90;;;;;;5014471;28;20040;-68
2022/03/19 00:41:54;;;;;;;22.38;4.07;;;19.90;99.90;;;;;;5028672;28;20478;-68
2022/03/19 00:44:21;;;;;;;18.40;3.58;;;20.00;99.90;;;;;;5034368;28;20169;-68
2022/03/19 00:46:49;;;;;;;17.55;3.65;;;20.10;99.90;;;;;;5031734;28;20026;-69
2022/03/19 00:49:17;;;;;;;18.10;2.47;;;20.20;99.90;;;;;;5035599;28;20029;-68
2022/03/19 00:51:44;;;;;;;19.30;4.00;;;20.00;99.90;;;;;;5034430;28;20035;-68
2022/03/19 00:54:12;;;;;;;24.52;4.45;;;19.90;99.90;;;;;;5034626;28;20371;-67
2022/03/19 00:56:40;;;;;;;17.38;2.47;;;19.80;99.90;;;;;;5031258;28;20017;-68
2022/03/19 00:59:08;;;;;;;17.88;3.30;;;19.80;99.90;;;;;;5031874;28;20052;-67
2022/03/19 01:01:35;;;;;;;16.33;1.92;;;19.70;99.90;;;;;;5033627;28;20029;-68
2022/03/19 01:04:03;;;;;;;17.83;2.67;;;19.70;99.90;;;;;;5031636;28;20049;-68
2022/03/19 01:06:33;;;;;;;12.60;2.13;;;19.60;99.90;;;;;;5029016;28;20107;-68
2022/03/19 01:09:01;;;;;;;16.85;3.55;;;19.70;99.90;;;;;;5032631;28;20049;-68
2022/03/19 01:11:28;;;;;;;17.25;3.00;;;19.80;99.90;;;;;;5028842;28;20061;-68
2022/03/19 01:13:56;;;;;;;15.38;2.72;;;19.90;99.90;;;;;;5031328;28;20025;-68
2022/03/19 01:16:25;;;;;;;16.17;3.10;;;19.90;99.90;;;;;;5027328;28;20363;-68
2022/03/19 01:18:53;;;;;;;16.75;4.32;;;19.90;99.90;;;;;;5026015;28;20025;-68
2022/03/19 01:21:21;;;;;;;16.20;3.03;;;19.80;99.90;;;;;;5028302;28;20033;-68
2022/03/19 01:23:48;;;;;;;22.60;3.85;;;19.80;99.90;;;;;;5030915;28;20021;-68
2022/03/19 01:26:16;;;;;;;22.90;2.83;;;19.70;99.90;;;;;;5032903;28;20104;-68
2022/03/19 01:28:43;;;;;;;21.42;3.10;;;19.70;99.90;;;;;;5030909;28;20021;-68
2022/03/19 01:31:11;;;;;;;18.20;3.60;;;19.80;99.90;;;;;;5031182;28;20571;-68
2022/03/19 01:33:38;;;;;;;18.92;2.83;;;20.00;99.90;;;;;;5030689;28;20041;-68
2022/03/19 01:36:06;;;;;;;20.20;3.13;;;20.20;99.90;;;;;;5032985;28;20036;-68
2022/03/19 01:38:33;;;;;;;18.15;3.13;;;20.50;99.90;;;;;;5034588;28;20120;-68
2022/03/19 01:41:01;;;;;;;19.80;3.00;;;20.70;99.90;;;;;;5030261;28;20405;-68
2022/03/19 01:43:28;;;;;;;14.77;2.28;;;20.90;99.90;;;;;;5030844;28;20563;-67
2022/03/19 01:45:55;;;;;;;18.67;4.32;;;21.00;99.90;;;;;;5021527;28;20031;-68
2022/03/19 01:48:25;;;;;;;17.42;3.50;;;21.00;99.90;;;;;;5028317;28;20025;-68
2022/03/19 01:50:52;;;;;;;27.20;4.05;;;21.00;99.90;;;;;;5019154;28;20064;-68
2022/03/19 01:53:19;;;;;;;22.83;4.47;;;20.80;99.90;;;;;;5027124;28;20030;-68
2022/03/19 01:55:47;;;;;;;19.27;3.60;;;20.50;99.90;;;;;;5029181;28;20030;-68
2022/03/19 01:58:14;;;;;;;22.17;3.72;;;20.20;99.90;;;;;;5028792;28;20502;-68
2022/03/19 02:00:42;;;;;;;20.77;4.10;;;20.00;99.90;;;;;;5022914;28;20037;-68
2022/03/19 02:03:10;;;;;;;32.30;4.57;;;20.10;99.90;;;;;;5027969;28;20057;-68
2022/03/19 02:05:37;;;;;;;22.55;3.70;;;20.10;99.90;;;;;;5027898;28;20105;-68
2022/03/19 02:08:05;;;;;;;18.65;4.38;;;20.20;99.90;;;;;;5033465;28;20063;-68
2022/03/19 02:10:34;;;;;;;15.57;3.22;;;20.50;99.90;;;;;;5032811;28;20064;-68
2022/03/19 02:13:02;;;;;;;18.45;3.15;;;20.60;99.90;;;;;;5033980;28;20018;-68
2022/03/19 02:15:29;;;;;;;20.80;4.75;;;20.80;99.90;;;;;;5031043;28;20474;-68
2022/03/19 02:17:56;;;;;;;16.83;3.45;;;21.20;99.90;;;;;;5031714;28;20025;-68
2022/03/19 02:20:24;;;;;;;20.00;4.45;;;21.20;99.90;;;;;;5031727;28;20030;-68
2022/03/19 02:25:40;;;;;;;18.30;4.82;;;21.00;99.90;;;;;;5017909;28;20501;-68
2022/03/19 02:28:07;;;;;;;15.93;3.30;;;20.90;99.90;;;;;;5033601;28;20029;-68
2022/03/19 02:30:39;;;;;;;17.00;2.90;;;20.90;99.90;;;;;;5032719;28;20041;-69
2022/03/19 02:33:06;;;;;;;24.00;3.65;;;21.00;99.90;;;;;;5032384;28;20116;-68
2022/03/19 02:35:36;;;;;;;15.88;3.08;;;21.00;99.90;;;;;;5032307;28;20133;-68
2022/03/19 02:38:03;;;;;;;14.68;2.67;;;21.00;99.90;;;;;;5033466;28;20034;-69
2022/03/19 02:40:31;;;;;;;16.85;3.20;;;20.90;99.90;;;;;;5031955;28;20083;-69
2022/03/19 02:42:58;;;;;;;21.48;4.03;;;20.90;99.90;;;;;;5031803;28;20033;-68
2022/03/19 02:45:26;;;;;;;17.88;3.47;;;20.80;99.90;;;;;;5032340;28;20032;-68
2022/03/19 02:47:59;;;;;;;25.95;3.97;;;20.90;99.90;;;;;;5033245;28;20119;-68
2022/03/19 02:50:35;;;;;;;18.73;2.90;;;20.90;99.90;;;;;;5028014;28;20029;-68
2022/03/19 02:53:05;;;;;;;16.73;3.15;;;20.90;99.90;;;;;;5024622;28;20022;-70
2022/03/19 02:55:34;;;;;;;16.83;2.60;;;21.00;99.90;;;;;;5022905;28;20026;-69
2022/03/19 02:58:02;;;;;;;17.05;2.58;;;21.10;99.90;;;;;;5031289;28;20025;-69
2022/03/19 03:00:30;;;;;;;20.70;4.00;;;21.20;99.90;;;;;;5031019;28;20036;-68
2022/03/19 03:02:58;;;;;;;16.92;2.88;;;21.20;99.90;;;;;;5028647;28;20061;-70
2022/03/19 03:05:25;;;;;;;14.55;3.00;;;21.20;99.90;;;;;;5031960;28;20032;-68
2022/03/19 03:07:52;;;;;;;13.73;2.22;;;21.30;99.90;;;;;;5018308;28;20507;-68
2022/03/19 03:10:20;;;;;;;13.63;2.88;;;21.50;99.90;;;;;;5031289;28;20389;-69
2022/03/19 03:12:47;;;;;;;14.23;2.20;;;21.50;99.90;;;;;;5031587;28;20107;-68
2022/03/19 03:15:15;;;;;;;16.95;2.88;;;21.50;99.90;;;;;;5031551;28;20045;-68
2022/03/19 03:17:42;;;;;;;19.17;3.65;;;21.40;99.90;;;;;;5032585;28;20077;-68
2022/03/19 03:20:10;;;;;;;14.27;2.22;;;21.50;99.90;;;;;;5031647;28;20036;-69
2022/03/19 03:22:41;;;;;;;17.00;2.58;;;21.50;99.90;;;;;;5031933;28;20035;-68
2022/03/19 03:25:08;;;;;;;17.83;2.85;;;21.40;99.90;;;;;;5032744;28;20022;-70
2022/03/19 03:27:36;;;;;;;15.32;3.25;;;21.50;99.90;;;;;;5032258;28;20115;-70
2022/03/19 03:30:04;;;;;;;19.45;2.80;;;21.50;99.90;;;;;;5030654;28;20026;-69
2022/03/19 03:32:31;;;;;;;20.88;3.25;;;21.50;99.90;;;;;;5027504;28;20091;-68
2022/03/19 03:34:59;;;;;;;15.48;3.20;;;21.50;99.90;;;;;;5023949;28;20034;-68
2022/03/19 03:37:26;;;;;;;14.15;2.30;;;21.60;99.90;;;;;;5013888;28;20065;-68
2022/03/19 03:39:53;;;;;;;14.48;2.75;;;21.50;99.90;;;;;;5013037;28;20052;-69
2022/03/19 03:42:21;;;;;;;14.68;2.58;;;21.60;99.90;;;;;;5030124;28;20033;-70
2022/03/19 03:44:48;;;;;;;12.05;2.42;;;21.60;99.90;;;;;;5032500;28;20031;-69
2022/03/19 03:47:15;;;;;;;10.93;2.35;;;21.60;99.90;;;;;;5030414;28;20025;-68
2022/03/19 03:49:42;;;;;;;11.90;2.08;;;21.60;99.90;;;;;;5018667;28;20503;-68
2022/03/19 03:52:10;;;;;;;15.60;2.08;;;21.70;99.90;;;;;;5028849;28;20029;-68
2022/03/19 03:54:37;;;;;;;13.90;2.00;;;21.60;99.90;;;;;;5035890;28;20033;-68
2022/03/19 03:57:04;;;;;;;11.65;1.73;;;21.60;99.90;;;;;;5034791;28;20498;-69
2022/03/19 03:59:32;;;;;;;14.48;3.13;;;21.50;99.90;;;;;;5029956;28;20037;-68
2022/03/19 04:01:59;;;;;;;12.95;2.63;;;21.50;99.90;;;;;;5022523;28;20026;-68
2022/03/19 04:04:27;;;;;;;16.60;2.97;;;21.50;99.90;;;;;;5026352;28;20421;-68
2022/03/19 04:06:54;;;;;;;23.60;3.28;;;21.50;99.90;;;;;;5023403;28;20382;-68
2022/03/19 04:09:22;;;;;;;16.17;3.42;;;21.40;99.90;;;;;;5033411;28;20033;-68
2022/03/19 04:11:49;;;;;;;21.10;2.83;;;21.50;99.90;;;;;;5029306;28;20026;-69
2022/03/19 04:14:16;;;;;;;16.42;3.28;;;21.40;99.90;;;;;;5032952;28;20124;-68
2022/03/19 04:16:43;;;;;;;19.02;3.17;;;21.20;99.90;;;;;;5031473;28;20018;-68
2022/03/19 04:19:11;;;;;;;13.25;2.97;;;21.20;99.90;;;;;;5031598;28;20044;-67
2022/03/19 04:21:38;;;;;;;22.73;3.40;;;21.20;99.90;;;;;;5025392;28;20030;-68
2022/03/19 04:24:05;;;;;;;16.33;3.50;;;21.20;99.90;;;;;;5016237;28;20025;-68
2022/03/19 04:26:33;;;;;;;16.27;3.72;;;21.30;99.90;;;;;;5026015;28;20083;-68
2022/03/19 04:29:00;;;;;;;15.77;3.25;;;21.60;99.90;;;;;;5033211;28;20020;-68
2022/03/19 04:31:27;;;;;;;18.48;3.80;;;21.70;99.90;;;;;;5033331;28;20022;-67
2022/03/19 04:33:55;;;;;;;16.70;2.55;;;21.60;99.90;;;;;;5024144;28;20124;-68
2022/03/19 04:36:31;;;;;;;12.57;1.83;;;21.40;99.90;;;;;;5030027;28;20582;-67
2022/03/19 04:39:03;;;;;;;14.75;3.22;;;21.40;99.90;;;;;;5018014;28;20034;-67
2022/03/19 04:41:31;;;;;;;11.20;2.20;;;21.30;99.90;;;;;;5021481;28;20021;-68
2022/03/19 04:43:58;;;;;;;15.02;2.78;;;21.30;99.90;;;;;;5031074;28;20026;-68
2022/03/19 04:46:26;;;;;;;11.82;2.85;;;21.60;99.90;;;;;;5023106;28;20074;-68
2022/03/19 04:48:54;;;;;;;16.30;2.25;;;21.60;99.90;;;;;;5026031;28;20076;-66
2022/03/19 04:51:24;;;;;;;11.43;1.90;;;21.50;99.90;;;;;;5030151;28;20030;-68
2022/03/19 04:53:52;;;;;;;9.80;1.80;;;21.50;99.90;;;;;;5035542;28;20045;-68
2022/03/19 04:56:20;;;;;;;12.02;2.08;;;21.60;99.90;;;;;;5034360;28;20032;-68
2022/03/19 04:58:48;;;;;;;15.40;2.13;;;21.60;99.90;;;;;;5028293;28;20398;-67
2022/03/19 05:01:16;;;;;;;13.60;2.35;;;21.50;99.90;;;;;;5026808;28;20021;-68
2022/03/19 05:03:43;;;;;;;20.45;3.80;;;21.40;99.90;;;;;;5028248;28;20133;-70
2022/03/19 05:06:11;;;;;;;15.07;2.58;;;21.30;99.90;;;;;;5030615;28;20026;-70
2022/03/19 05:08:38;;;;;;;15.65;3.13;;;21.30;99.90;;;;;;5029390;28;20018;-68
2022/03/19 05:11:16;;;;;;;14.23;1.90;;;21.30;99.90;;;;;;5026032;28;20033;-68
2022/03/19 05:13:48;;;;;;;14.13;2.47;;;21.40;99.90;;;;;;5032772;28;20041;-68
2022/03/19 05:16:18;;;;;;;12.82;2.20;;;21.40;99.90;;;;;;5022559;28;20022;-68
2022/03/19 05:18:45;;;;;;;13.38;3.25;;;21.40;99.90;;;;;;5027084;28;20091;-68
2022/03/19 05:21:13;;;;;;;13.38;2.72;;;21.30;99.90;;;;;;5030332;28;20036;-68
2022/03/19 05:23:44;;;;;;;14.07;2.50;;;21.20;99.90;;;;;;5027665;28;20477;-68
2022/03/19 05:26:12;;;;;;;19.88;3.75;;;21.30;99.90;;;;;;5028342;28;20798;-69
2022/03/19 05:28:39;;;;;;;19.05;3.17;;;21.30;99.90;;;;;;5031489;28;20034;-69
2022/03/19 05:31:09;;;;;;;11.98;2.95;;;21.30;99.90;;;;;;5027127;28;20467;-68
2022/03/19 05:36:24;;;;;;;11.55;2.83;;;21.20;99.90;;;;;;5032373;28;20044;-68
2022/03/19 05:38:51;;;;;;;12.90;2.33;;;21.20;99.90;;;;;;5033251;28;20099;-68
2022/03/19 05:41:18;;;;;;;13.35;1.63;;;21.20;99.90;;;;;;5033372;28;20063;-68
2022/03/19 05:43:46;;;;;;;15.70;2.70;;;21.20;99.90;;;;;;5034892;28;20053;-68
2022/03/19 05:46:13;;;;;;;15.52;3.38;;;21.30;99.90;;;;;;5024442;28;20025;-68
2022/03/19 05:48:41;;;;;;;17.27;2.97;;;21.40;99.90;;;;;;5014741;28;20386;-69
2022/03/19 05:51:08;;;;;;;15.05;2.85;;;21.50;99.90;;;;;;5021481;28;20021;-68
2022/03/19 05:53:36;;;;;;;14.93;2.28;;;21.50;99.90;;;;;;5034088;28;20026;-69
2022/03/19 05:56:03;;;;;;;13.55;2.20;;;21.60;99.90;;;;;;5026974;28;20025;-68
2022/03/19 05:58:30;;;;;;;13.43;2.22;;;21.60;99.90;;;;;;5024281;28;20041;-68
2022/03/19 06:00:58;;;;;;;16.27;2.47;;;21.60;99.90;;;;;;5031905;28;20033;-68
2022/03/19 06:03:25;;;;;;;12.73;2.72;;;21.60;99.90;;;;;;5018216;28;20041;-68
2022/03/19 06:05:52;;;;;;;14.50;3.13;;;21.60;99.90;;;;;;5032704;28;20075;-68
2022/03/19 06:08:20;;;;;;;11.07;2.53;;;21.60;99.90;;;;;;5033347;28;20022;-68
2022/03/19 06:10:47;;;;;;;12.43;2.15;;;21.70;99.90;;;;;;5032513;28;20040;-68
2022/03/19 06:13:15;;;;;;;14.77;3.13;;;21.60;99.90;;;;;;5034253;28;20013;-69
2022/03/19 06:15:42;;;;;;;17.77;2.95;;;21.60;99.90;;;;;;5024671;28;20025;-68
2022/03/19 06:18:09;;;;;;;15.43;2.45;;;21.50;99.90;;;;;;5026894;28;20372;-68
2022/03/19 06:20:36;;;;;;;10.90;2.78;;;21.60;99.90;;;;;;5027827;28;20034;-69
2022/03/19 06:23:04;;;;;;;10.57;1.95;;;21.60;99.90;;;;;;5024629;28;20117;-69
2022/03/19 06:25:31;;;;;;;12.55;2.28;;;21.50;99.90;;;;;;5026155;28;20762;-69
2022/03/19 06:27:58;;;;;;;13.68;2.85;;;21.30;99.90;;;;;;5026961;28;20112;-69
2022/03/19 06:30:25;;;;;;;12.38;2.80;;;21.10;99.90;;;;;;5025023;28;20025;-70
2022/03/19 06:32:53;;;;;;;13.05;2.47;;;21.10;99.90;;;;;;5027254;28;20367;-69
2022/03/19 06:38:05;;;;;;;14.15;2.85;;;21.00;99.90;;;;;;5013657;28;20087;-69
2022/03/19 06:40:32;;;;;;;11.65;1.88;;;21.00;99.90;;;;;;5030641;28;20401;-68
2022/03/19 06:42:59;;;;;;;8.20;2.03;;;20.90;99.90;;;;;;5029168;28;20017;-68
2022/03/19 06:45:27;;;;;;;11.80;3.05;;;20.90;99.90;;;;;;5025055;28;20057;-67
2022/03/19 06:47:54;;;;;;;16.55;3.20;;;20.90;99.90;;;;;;5027489;28;20026;-68
2022/03/19 06:50:21;;;;;;;20.27;3.22;;;20.80;99.90;;;;;;5026762;28;20030;-67
2022/03/19 06:52:48;;;;;;;15.32;3.83;;;20.80;99.90;;;;;;5015595;28;20487;-68
2022/03/19 06:55:16;;;;;;;17.80;3.13;;;20.80;99.90;;;;;;5026663;28;20029;-67
2022/03/19 06:57:43;;;;;;;11.73;2.60;;;20.80;99.90;;;;;;5027546;28;20024;-68
2022/03/19 07:00:11;;;;;;;14.68;3.38;;;20.90;99.90;;;;;;5026816;28;20390;-68
2022/03/19 07:02:55;;;;;;;17.05;2.60;;;20.80;99.90;;;;;;5027538;28;20386;-68
2022/03/19 07:05:27;;;;;;;12.60;2.65;;;20.80;99.90;;;;;;5020791;28;20033;-68
2022/03/19 07:07:56;;;;;;;14.07;1.90;;;20.80;99.90;;;;;;5024909;28;20112;-68
2022/03/19 07:10:24;;;;;;;15.25;2.88;;;20.80;99.90;;;;;;5031180;28;20017;-68
2022/03/19 07:12:56;;;;;;;10.38;2.15;;;20.70;99.90;;;;;;5031550;28;20026;-67
2022/03/19 07:15:27;;;;;;;18.50;3.05;;;20.60;99.90;;;;;;5030389;28;20025;-68
2022/03/19 07:17:56;;;;;;;21.85;3.05;;;20.60;99.90;;;;;;5032690;28;20021;-68
2022/03/19 07:20:23;;;;;;;21.02;3.13;;;20.60;99.90;;;;;;5031240;28;20075;-67
2022/03/19 07:22:55;;;;;;;14.10;3.00;;;20.50;99.90;;;;;;5032615;28;20029;-68
2022/03/19 07:25:29;;;;;;;13.05;3.97;;;20.60;99.90;;;;;;5024816;28;20026;-68
2022/03/19 07:28:03;;;;;;;15.98;3.75;;;20.60;99.90;;;;;;5031793;28;20025;-67
2022/03/19 07:30:31;;;;;;;11.57;3.42;;;20.60;99.90;;;;;;5031080;28;20025;-67
2022/03/19 07:33:01;;;;;;;16.00;4.78;;;20.60;99.90;;;;;;5032442;28;20036;-68
2022/03/19 07:35:29;;;;;;;20.25;5.68;;;20.60;99.90;;;;;;5030958;28;20021;-68
2022/03/19 07:38:00;;;;;;;17.08;3.97;;;20.60;99.90;;;;;;5032280;28;20079;-68
2022/03/19 07:43:14;;;;;;;16.63;2.95;;;20.40;99.90;;;;;;5032479;28;20398;-68
2022/03/19 07:45:42;;;;;;;15.98;2.83;;;20.40;99.90;;;;;;5030597;28;20062;-68
2022/03/19 07:48:10;;;;;;;10.88;2.05;;;20.30;99.90;;;;;;5032233;28;20041;-68
2022/03/19 07:50:38;;;;;;;14.93;2.85;;;20.30;99.90;;;;;;5030680;28;20022;-67
2022/03/19 07:53:07;;;;;;;16.27;3.28;;;20.30;99.90;;;;;;5032208;28;20068;-68
2022/03/19 07:55:35;;;;;;;21.42;4.28;;;20.30;99.90;;;;;;5030205;28;20061;-68
2022/03/19 07:58:03;;;;;;;19.95;3.60;;;20.30;99.90;;;;;;5031239;28;20425;-68
2022/03/19 08:00:31;;;;;;;20.15;3.45;;;20.30;99.90;;;;;;5021421;28;20578;-68
2022/03/19 08:02:58;;;;;;;14.00;3.10;;;20.30;99.90;;;;;;5031888;28;20040;-68
2022/03/19 08:05:25;;;;;;;14.77;2.22;;;20.30;99.90;;;;;;5030543;28;20032;-68
2022/03/19 08:07:52;;;;;;;15.02;2.38;;;20.30;99.90;;;;;;5031082;28;20026;-68
2022/03/19 08:10:20;;;;;;;11.10;2.50;;;20.20;99.90;;;;;;5028931;28;20552;-68
2022/03/19 08:16:09;;;;;;;10.52;2.20;;;20.20;99.90;;;;;;5025832;28;20040;-68
2022/03/19 08:18:37;;;;;;;12.30;2.03;;;20.20;99.90;;;;;;5022066;28;20034;-68
2022/03/19 08:21:05;;;;;;;16.83;3.35;;;20.20;99.90;;;;;;5031874;28;20018;-67
2022/03/19 08:23:34;;;;;;;17.85;3.25;;;20.20;99.90;;;;;;5029828;28;20478;-68
2022/03/19 08:26:02;;;;;;;14.88;2.50;;;20.20;99.90;;;;;;5030755;28;20021;-68
2022/03/19 08:28:29;;;;;;;12.93;2.60;;;20.20;99.90;;;;;;5026459;28;20395;-68
2022/03/19 08:30:58;;;;;;;20.52;2.22;;;20.20;99.90;;;;;;5018058;28;20116;-68
2022/03/19 08:33:26;;;;;;;17.27;3.40;;;20.20;99.90;;;;;;5030538;28;20025;-69
2022/03/19 08:35:53;;;;;;;17.50;2.92;;;20.20;99.90;;;;;;5031545;28;20057;-68
2022/03/19 08:41:03;;;;;;;11.02;2.97;;;20.20;99.90;;;;;;5035018;28;20033;-68
2022/03/19 08:43:31;;;;;;;12.30;2.83;;;20.20;99.90;;;;;;5034708;28;20032;-67
2022/03/19 08:45:58;;;;;;;14.50;2.70;;;20.20;99.90;;;;;;5035453;28;20392;-68
2022/03/19 08:48:26;;;;;;;15.50;3.38;;;20.20;99.90;;;;;;5028957;28;20375;-68
2022/03/19 08:51:39;;;;;;;10.23;2.00;;;20.10;99.90;;;;;;5015650;28;20018;-68
2022/03/19 08:53:41;;;;;;;15.88;3.13;;;20.10;99.90;;;;;;5022002;28;20470;-68
2022/03/19 08:56:08;;;;;;;12.25;2.88;;;20.10;99.90;;;;;;5035520;28;20071;-68
2022/03/19 08:58:37;;;;;;;17.77;3.83;;;20.10;99.90;;;;;;5033151;28;20510;-68
2022/03/19 09:01:05;;;;;;;12.43;3.17;;;20.00;99.90;;;;;;5033946;28;20057;-68
2022/03/19 09:03:33;;;;;;;13.48;2.25;;;20.10;99.90;;;;;;5033407;28;20132;-68
2022/03/19 09:06:01;;;;;;;12.73;2.38;;;20.10;99.90;;;;;;5034949;28;20027;-69
2022/03/19 09:08:28;;;;;;;15.23;3.17;;;20.10;99.90;;;;;;5031803;28;20079;-68
2022/03/19 09:10:58;;;;;;;18.70;3.78;;;20.10;99.90;;;;;;5035198;28;20030;-68
2022/03/19 09:13:25;;;;;;;14.80;2.58;;;20.00;99.90;;;;;;5023318;28;20022;-69
2022/03/19 09:15:53;;;;;;;13.00;2.13;;;20.00;99.90;;;;;;5034006;28;20033;-69
2022/03/19 09:18:21;;;;;;;11.80;2.22;;;20.10;99.90;;;;;;5034094;28;20038;-68
2022/03/19 09:20:49;;;;;;;17.67;2.42;;;20.10;99.90;;;;;;5035122;28;20052;-68
2022/03/19 09:23:17;;;;;;;16.65;2.55;;;20.10;99.90;;;;;;5033315;28;20025;-69
2022/03/19 09:25:44;;;;;;;13.10;2.80;;;20.10;99.90;;;;;;5034968;28;20104;-68
2022/03/19 09:28:11;;;;;;;14.80;3.60;;;20.10;99.90;;;;;;5033332;28;20113;-69
2022/03/19 09:30:39;;;;;;;13.73;2.80;;;20.10;99.90;;;;;;5022304;28;20450;-69
2022/03/19 09:33:07;;;;;;;18.95;3.45;;;20.10;99.90;;;;;;5033840;28;20092;-68
2022/03/19 09:35:35;;;;;;;12.40;2.33;;;20.10;99.90;;;;;;5033267;28;20029;-68
2022/03/19 09:38:03;;;;;;;17.98;3.10;;;20.00;99.90;;;;;;5033030;28;20596;-68
2022/03/19 09:40:31;;;;;;;11.75;2.58;;;20.00;99.90;;;;;;5014865;28;20073;-68
2022/03/19 09:42:59;;;;;;;17.05;2.80;;;20.00;99.90;;;;;;5029068;28;20033;-68
2022/03/19 09:45:28;;;;;;;18.50;2.88;;;20.10;99.90;;;;;;5034583;28;20502;-68
2022/03/19 09:47:57;;;;;;;12.90;2.67;;;20.10;99.90;;;;;;5033310;28;20013;-69
2022/03/19 09:50:26;;;;;;;15.77;3.38;;;20.10;99.90;;;;;;5034400;28;20466;-68
2022/03/19 09:52:55;;;;;;;18.08;4.25;;;20.10;99.90;;;;;;5033292;28;20082;-68
2022/03/19 09:55:28;;;;;;;15.35;3.15;;;20.10;99.90;;;;;;5017809;28;20111;-68
2022/03/19 09:57:57;;;;;;;17.05;2.78;;;20.10;99.90;;;;;;5032380;28;20025;-68
2022/03/19 10:00:26;;;;;;;14.15;3.35;;;20.20;99.90;;;;;;5028479;28;20037;-68
2022/03/19 10:02:59;;;;;;;12.70;2.20;;;20.20;99.90;;;;;;5024016;28;20021;-69
2022/03/19 10:11:01;;;;;;;16.52;2.60;;;20.10;99.90;;;;;;5034007;28;20546;-68
2022/03/19 10:13:29;;;;;;;18.27;2.90;;;20.10;99.90;;;;;;5032072;28;20436;-69
2022/03/19 10:15:57;;;;;;;21.05;2.80;;;20.10;99.90;;;;;;5032201;28;20402;-68
2022/03/19 10:18:32;;;;;;;18.83;2.85;;;20.10;99.90;;;;;;5030966;28;20124;-68
2022/03/19 10:21:12;;;;;;;19.08;2.75;;;20.10;99.90;;;;;;5032981;28;20030;-68
2022/03/19 10:23:41;;;;;;;11.27;1.63;;;20.00;99.90;;;;;;5030231;28;20026;-68
2022/03/19 10:26:23;;;;;;;12.52;2.58;;;20.00;99.90;;;;;;5033923;28;20033;-68
2022/03/19 10:29:04;;;;;;;17.52;2.65;;;20.00;99.90;;;;;;5032049;28;20025;-68
2022/03/19 10:31:37;;;;;;;15.57;2.97;;;19.90;99.90;;;;;;5013997;28;20505;-68
2022/03/19 10:34:07;;;;;;;12.60;2.57;;;19.90;99.90;;;;;;5023880;28;20504;-68
2022/03/19 10:36:42;;;;;;;12.77;2.53;;;19.90;99.90;;;;;;5033464;28;20349;-68
2022/03/19 10:39:35;;;;;;;13.52;2.35;;;19.90;99.90;;;;;;5031889;28;20029;-68
2022/03/19 10:42:15;;;;;;;15.27;2.83;;;19.90;99.90;;;;;;5029166;28;20437;-68
2022/03/19 10:44:47;;;;;;;13.38;2.47;;;20.00;99.90;;;;;;5032045;28;20036;-69
2022/03/19 10:47:22;;;;;;;11.60;3.65;;;20.00;99.90;;;;;;5031895;28;20086;-68
2022/03/19 10:49:50;;;;;;;17.67;2.67;;;20.00;99.90;;;;;;5030815;28;20639;-69
2022/03/19 10:52:17;;;;;;;18.65;2.45;;;20.00;99.90;;;;;;5033194;28;20560;-68
2022/03/19 10:54:46;;;;;;;15.05;2.00;;;20.10;99.90;;;;;;5031714;28;20108;-68
2022/03/19 10:57:13;;;;;;;15.45;2.65;;;20.10;99.90;;;;;;5021680;28;20029;-68
2022/03/19 10:59:40;;;;;;;11.05;2.20;;;20.10;99.90;;;;;;5028152;28;20547;-68
2022/03/19 11:02:09;;;;;;;19.90;2.75;;;20.10;99.90;;;;;;5020117;28;20030;-68
2022/03/19 11:04:37;;;;;;;14.43;3.25;;;20.10;99.90;;;;;;5028979;28;20477;-68
2022/03/19 11:07:06;;;;;;;14.35;3.35;;;20.10;99.90;;;;;;5032943;28;20025;-68
2022/03/19 11:09:38;;;;;;;13.32;2.20;;;20.10;99.90;;;;;;5031695;28;20036;-68
2022/03/19 11:12:09;;;;;;;10.57;2.13;;;19.90;99.90;;;;;;5033001;28;20055;-68
2022/03/19 11:14:40;;;;;;;14.93;3.28;;;19.80;99.90;;;;;;5031389;28;20037;-68
2022/03/19 11:17:27;;;;;;;13.70;2.88;;;19.80;99.90;;;;;;5030199;28;20030;-68
2022/03/19 11:20:02;;;;;;;12.25;2.30;;;19.70;99.90;;;;;;5031970;28;20445;-69
2022/03/19 11:22:46;;;;;;;15.13;3.30;;;19.60;99.90;;;;;;5031971;28;20033;-68
2022/03/19 11:25:25;;;;;;;18.50;3.55;;;19.60;99.90;;;;;;5032152;28;20052;-68
2022/03/19 11:27:57;;;;;;;14.27;2.47;;;19.60;99.90;;;;;;5031571;28;20045;-68
2022/03/19 11:30:28;;;;;;;14.77;2.97;;;19.70;99.90;;;;;;5012889;28;20474;-68
2022/03/19 11:33:19;;;;;;;15.73;2.17;;;19.60;99.90;;;;;;5013310;28;20382;-68
2022/03/19 11:35:49;;;;;;;16.05;3.20;;;19.50;99.90;;;;;;5032391;28;20033;-68
2022/03/19 11:38:20;;;;;;;16.50;2.90;;;19.40;99.90;;;;;;5030755;28;20367;-68
2022/03/19 11:41:00;;;;;;;10.70;2.58;;;19.40;99.90;;;;;;5032448;28;20022;-68
2022/03/19 11:43:35;;;;;;;18.60;2.90;;;19.40;99.90;;;;;;5030002;28;20030;-68
2022/03/19 11:46:09;;;;;;;25.85;3.53;;;19.40;99.90;;;;;;5032354;28;20109;-68
2022/03/19 11:48:37;;;;;;;11.45;2.60;;;19.40;99.90;;;;;;5030642;28;20456;-68
2022/03/19 11:51:17;;;;;;;18.55;2.55;;;19.40;99.90;;;;;;5026294;28;20030;-68
2022/03/19 11:54:19;;;;;;;18.42;2.92;;;19.30;99.90;;;;;;5028402;28;20649;-68
2022/03/19 11:56:47;;;;;;;14.70;3.28;;;19.40;99.90;;;;;;5031118;28;20532;-68
2022/03/19 11:59:24;;;;;;;12.68;3.30;;;19.30;99.90;;;;;;5031223;28;20029;-68
2022/03/19 12:01:57;;;;;;;16.73;4.00;;;19.30;99.90;;;;;;5031672;28;20060;-68
2022/03/19 12:04:25;;;;;;;15.85;3.70;;;19.20;99.90;;;;;;5029552;28;20502;-68
2022/03/19 12:07:00;;;;;;;10.30;2.53;;;19.20;99.90;;;;;;5031953;28;20024;-68
2022/03/19 12:09:53;;;;;;;10.38;2.15;;;19.20;99.90;;;;;;5023128;28;20085;-68
2022/03/19 12:12:24;;;;;;;14.55;3.22;;;19.10;99.90;;;;;;5029750;28;20038;-67
2022/03/19 12:14:52;;;;;;;15.52;2.80;;;19.10;99.90;;;;;;5033829;28;20052;-68
2022/03/19 12:17:27;;;;;;;16.40;3.78;;;19.10;99.90;;;;;;5025354;28;20400;-68
2022/03/19 12:20:03;;;;;;;14.57;3.20;;;19.00;99.90;;;;;;5031668;28;20037;-68
2022/03/19 12:22:32;;;;;;;12.90;2.53;;;19.00;99.90;;;;;;5035136;28;20025;-68
2022/03/19 12:25:34;;;;;;;11.85;2.20;;;19.00;99.90;;;;;;5034964;28;20046;-68
2022/03/19 12:28:01;;;;;;;21.65;3.67;;;18.90;99.90;;;;;;5034242;28;20025;-68
2022/03/19 12:30:29;;;;;;;15.38;2.60;;;18.80;99.90;;;;;;5035749;28;20108;-68
2022/03/19 12:32:58;;;;;;;13.00;2.67;;;18.80;99.90;;;;;;5034095;28;20116;-68
2022/03/19 12:35:47;;;;;;;15.98;2.70;;;18.80;99.90;;;;;;5034564;28;20105;-68
2022/03/19 12:38:27;;;;;;;19.02;3.40;;;18.80;99.90;;;;;;5033595;28;20061;-68
2022/03/19 12:43:38;;;;;;;10.52;2.03;;;18.80;99.90;;;;;;5034353;28;20030;-67
2022/03/19 12:46:06;;;;;;;11.93;2.50;;;18.70;99.90;;;;;;5029869;28;20516;-67
2022/03/19 12:48:39;;;;;;;15.45;3.25;;;18.70;99.90;;;;;;5033714;28;20076;-67
2022/03/19 12:51:07;;;;;;;10.20;2.17;;;18.70;99.90;;;;;;5035532;28;20389;-67
2022/03/19 12:53:39;;;;;;;13.38;2.83;;;18.60;99.90;;;;;;5028843;28;20033;-67
2022/03/19 12:56:18;;;;;;;16.08;4.90;;;18.60;99.90;;;;;;5015791;28;20042;-67
2022/03/19 12:58:50;;;;;;;14.27;4.57;;;18.50;99.90;;;;;;5016523;28;20034;-67
2022/03/19 13:01:26;;;;;;;19.67;5.13;;;18.50;99.90;;;;;;5015433;28;20141;-67
2022/03/19 13:03:59;;;;;;;14.48;4.82;;;18.60;99.90;;;;;;5029093;28;20476;-68
2022/03/19 13:06:41;;;;;;;17.50;5.68;;;18.50;99.90;;;;;;5032540;28;20030;-67
2022/03/19 13:09:11;;;;;;;13.63;4.85;;;18.50;99.90;;;;;;5025112;28;20178;-68
2022/03/19 13:11:51;;;;;;;15.32;3.95;;;18.60;99.90;;;;;;5015796;28;20121;-68